Time;durP1;ratioP1;P1;durP2;ratioP2;P2;SDS_P1;SDS_P2;PMS_P1;PMS_P2;Temp;Humidity;BMP_temperature;BMP_pressure;BME280_temperature;BME280_humidity;BME280_pressure;Samples;Min_cycle;Max_cycle;Signal;HPM_P1;HPM_P2
2023/03/07 00:00:39;;;;;;;12.35;11.25;;;5.90;42.90;;;;;;20458;6860;308387;-74
2023/03/07 00:03:06;;;;;;;10.50;9.43;;;6.10;42.10;;;;;;20665;6860;117426;-74
2023/03/07 00:05:31;;;;;;;9.50;8.57;;;6.10;42.10;;;;;;20678;6848;117947;-73
2023/03/07 00:07:57;;;;;;;8.65;7.85;;;5.80;42.40;;;;;;20678;6857;117587;-74
2023/03/07 00:10:22;;;;;;;10.30;8.77;;;5.60;42.70;;;;;;20676;6857;121943;-74
2023/03/07 00:12:48;;;;;;;9.38;8.48;;;5.40;42.90;;;;;;20706;6848;117599;-76
2023/03/07 00:15:13;;;;;;;9.57;8.27;;;5.30;43.10;;;;;;20636;6867;126690;-74
2023/03/07 00:17:39;;;;;;;9.03;8.23;;;5.20;43.30;;;;;;20671;6860;117184;-73
2023/03/07 00:20:08;;;;;;;10.95;10.05;;;5.10;43.30;;;;;;20485;6848;341917;-73
2023/03/07 00:22:30;;;;;;;11.93;10.82;;;5.30;43.60;;;;;;20403;6867;338117;-75
2023/03/07 00:24:56;;;;;;;9.65;8.77;;;5.70;43.00;;;;;;20673;6860;123856;-74
2023/03/07 00:27:23;;;;;;;11.43;10.53;;;5.70;43.20;;;;;;20467;6848;338972;-76
2023/03/07 00:29:49;;;;;;;9.63;8.73;;;5.90;42.60;;;;;;20652;6867;117680;-76
2023/03/07 00:32:15;;;;;;;10.93;9.93;;;5.80;42.30;;;;;;20456;6860;279034;-73
2023/03/07 00:34:41;;;;;;;11.27;10.27;;;5.90;42.20;;;;;;20479;6849;339254;-73
2023/03/07 00:37:06;;;;;;;11.10;10.20;;;6.20;41.80;;;;;;20445;6867;314638;-75
2023/03/07 00:39:32;;;;;;;11.27;10.37;;;6.40;41.30;;;;;;20445;6860;308549;-73
2023/03/07 00:41:58;;;;;;;11.68;10.57;;;6.60;40.80;;;;;;20406;6860;308694;-73
2023/03/07 00:44:24;;;;;;;9.57;8.67;;;6.70;40.40;;;;;;20677;6860;122806;-75
2023/03/07 00:46:49;;;;;;;10.82;9.93;;;6.50;40.60;;;;;;20475;6849;330356;-73
2023/03/07 00:49:14;;;;;;;10.70;9.68;;;6.40;40.80;;;;;;20628;6867;133195;-74
2023/03/07 00:51:40;;;;;;;11.23;8.97;;;6.30;41.00;;;;;;20665;6860;117547;-75
2023/03/07 00:54:06;;;;;;;11.77;10.85;;;5.90;41.40;;;;;;20491;6849;280158;-73
2023/03/07 00:56:31;;;;;;;11.03;9.93;;;6.00;41.70;;;;;;20703;6849;117432;-72
2023/03/07 00:58:57;;;;;;;11.68;10.68;;;5.90;41.70;;;;;;20439;6867;313301;-74
2023/03/07 01:01:23;;;;;;;10.83;9.83;;;6.00;42.00;;;;;;20655;6860;128159;-74
2023/03/07 01:03:51;;;;;;;10.03;9.10;;;6.00;41.90;;;;;;20702;6849;118875;-75
2023/03/07 01:06:14;;;;;;;10.75;9.68;;;5.70;42.10;;;;;;20676;6855;123849;-74
2023/03/07 01:08:40;;;;;;;9.55;8.57;;;5.60;42.60;;;;;;20673;6856;117146;-76
2023/03/07 01:11:05;;;;;;;12.17;11.10;;;5.40;42.80;;;;;;20498;6848;282107;-75
2023/03/07 01:13:31;;;;;;;11.83;10.83;;;5.50;43.10;;;;;;20414;6867;308760;-76
2023/03/07 01:16:10;;;;;;;12.50;11.40;;;5.90;42.70;;;;;;20455;6860;308277;-74
2023/03/07 01:18:35;;;;;;;11.90;10.03;;;6.20;42.30;;;;;;20660;6860;117826;-73
2023/03/07 01:21:02;;;;;;;11.65;8.80;;;6.10;42.00;;;;;;20669;6860;117831;-74
2023/03/07 01:23:28;;;;;;;12.50;11.45;;;5.80;42.30;;;;;;20432;6854;309306;-75
2023/03/07 01:25:53;;;;;;;12.70;9.45;;;5.90;42.50;;;;;;20647;6867;117869;-75
2023/03/07 01:28:20;;;;;;;12.60;11.53;;;5.90;42.50;;;;;;20435;6867;279568;-76
2023/03/07 01:30:47;;;;;;;10.43;9.53;;;5.90;42.50;;;;;;20632;6872;117832;-80
2023/03/07 01:33:14;;;;;;;10.20;9.20;;;5.90;42.50;;;;;;20577;6866;117561;-77
2023/03/07 01:35:39;;;;;;;12.60;11.40;;;5.70;42.70;;;;;;20456;6859;308976;-77
2023/03/07 01:38:05;;;;;;;10.90;9.80;;;5.80;43.10;;;;;;20640;6869;118750;-74
2023/03/07 01:40:30;;;;;;;8.53;7.70;;;5.80;42.90;;;;;;20625;6872;118075;-75
2023/03/07 01:43:23;;;;;;;12.02;11.00;;;5.60;43.10;;;;;;20462;6858;278732;-75
2023/03/07 01:45:48;;;;;;;11.23;9.70;;;5.60;43.10;;;;;;20622;6867;119018;-77
2023/03/07 01:48:14;;;;;;;12.02;10.93;;;5.60;42.90;;;;;;20427;6872;279702;-73
2023/03/07 01:50:39;;;;;;;12.47;11.30;;;5.70;43.00;;;;;;20469;6854;280649;-75
2023/03/07 01:53:07;;;;;;;12.43;11.43;;;6.00;42.40;;;;;;20491;6847;312420;-75
2023/03/07 01:55:31;;;;;;;11.40;10.40;;;6.30;41.80;;;;;;20478;6847;309202;-74
2023/03/07 01:57:56;;;;;;;11.37;10.20;;;6.50;41.30;;;;;;20692;6850;117708;-76
2023/03/07 02:00:28;;;;;;;12.10;11.10;;;6.30;41.30;;;;;;20479;6849;316654;-75
2023/03/07 02:02:50;;;;;;;12.02;10.95;;;6.30;41.40;;;;;;20425;6863;312974;-74
2023/03/07 02:05:22;;;;;;;12.10;11.00;;;6.50;41.10;;;;;;20412;6859;313504;-74
2023/03/07 02:07:47;;;;;;;11.20;10.00;;;6.60;40.70;;;;;;20690;6849;118320;-74
2023/03/07 02:10:13;;;;;;;10.52;9.57;;;6.00;41.20;;;;;;20656;6864;117602;-75
2023/03/07 02:12:39;;;;;;;10.87;9.77;;;6.10;41.30;;;;;;20651;6862;118156;-74
2023/03/07 02:15:05;;;;;;;9.93;9.05;;;5.80;41.80;;;;;;20655;6862;118607;-76
2023/03/07 02:17:31;;;;;;;9.53;8.53;;;5.60;42.30;;;;;;20631;6860;117390;-74
2023/03/07 02:19:56;;;;;;;9.65;8.10;;;5.40;43.20;;;;;;20657;6862;117694;-74
2023/03/07 02:22:22;;;;;;;12.00;10.80;;;5.30;42.90;;;;;;20372;6862;338981;-74
2023/03/07 02:24:47;;;;;;;10.83;9.73;;;5.50;42.60;;;;;;20716;6847;117700;-75
2023/03/07 02:27:13;;;;;;;12.23;11.18;;;5.50;42.40;;;;;;20462;6850;282867;-74
2023/03/07 02:29:39;;;;;;;9.47;8.63;;;5.70;42.10;;;;;;20722;6846;118080;-75
2023/03/07 02:32:04;;;;;;;12.32;11.18;;;5.70;42.10;;;;;;20494;6850;313042;-73
2023/03/07 02:34:30;;;;;;;10.60;9.57;;;5.90;41.80;;;;;;20735;6841;119167;-74
2023/03/07 02:36:57;;;;;;;11.90;10.90;;;5.80;41.60;;;;;;20509;6841;279085;-77
2023/03/07 02:39:22;;;;;;;9.60;8.77;;;5.90;41.50;;;;;;20612;6841;121640;-74
2023/03/07 02:41:52;;;;;;;9.80;8.90;;;5.90;41.50;;;;;;20711;6841;117520;-77
2023/03/07 02:44:15;;;;;;;12.07;10.98;;;5.70;41.70;;;;;;20505;6841;308932;-74
2023/03/07 02:46:40;;;;;;;12.17;11.17;;;5.80;41.60;;;;;;20512;6841;308154;-74
2023/03/07 02:49:06;;;;;;;11.52;9.85;;;6.10;41.20;;;;;;20712;6841;117989;-74
2023/03/07 02:51:32;;;;;;;10.23;9.23;;;6.10;41.20;;;;;;20710;6841;118599;-75
2023/03/07 02:53:58;;;;;;;10.05;9.02;;;5.90;41.50;;;;;;20731;6841;117827;-75
2023/03/07 02:56:24;;;;;;;10.23;9.25;;;5.50;42.00;;;;;;20738;6841;117199;-75
2023/03/07 02:58:50;;;;;;;9.40;8.50;;;5.30;42.70;;;;;;20728;6841;119172;-77
2023/03/07 03:01:16;;;;;;;12.68;11.48;;;5.30;42.10;;;;;;20495;6841;308082;-74
2023/03/07 03:03:41;;;;;;;12.10;11.00;;;5.50;42.00;;;;;;20509;6841;338602;-74
2023/03/07 03:06:07;;;;;;;11.03;10.03;;;5.90;41.50;;;;;;20701;6850;117579;-75
2023/03/07 03:08:33;;;;;;;12.23;11.23;;;5.80;41.20;;;;;;20511;6841;341443;-75
2023/03/07 03:10:58;;;;;;;10.40;9.40;;;5.90;41.10;;;;;;20720;6841;117568;-74
2023/03/07 03:13:24;;;;;;;12.75;11.65;;;5.80;41.10;;;;;;20498;6841;280628;-74
2023/03/07 03:15:50;;;;;;;11.80;10.80;;;6.10;40.60;;;;;;20514;6841;308608;-74
2023/03/07 03:18:16;;;;;;;13.43;9.70;;;6.00;40.50;;;;;;20717;6841;117445;-75
2023/03/07 03:20:41;;;;;;;12.05;11.05;;;5.90;40.60;;;;;;20461;6862;309397;-74
2023/03/07 03:23:07;;;;;;;10.73;9.73;;;5.90;40.60;;;;;;20726;6842;118849;-75
2023/03/07 03:25:32;;;;;;;11.90;10.80;;;5.80;40.70;;;;;;20440;6857;281093;-75
2023/03/07 03:27:58;;;;;;;10.83;9.93;;;5.80;40.70;;;;;;20725;6840;121481;-74
2023/03/07 03:30:25;;;;;;;9.68;8.88;;;5.70;40.70;;;;;;20716;6845;118146;-75
2023/03/07 03:32:49;;;;;;;10.20;9.20;;;5.50;41.10;;;;;;20684;6853;117630;-74
2023/03/07 03:35:15;;;;;;;9.68;8.57;;;5.30;41.50;;;;;;20671;6853;121599;-74
2023/03/07 03:37:40;;;;;;;10.10;9.17;;;5.10;41.70;;;;;;20689;6853;117298;-75
2023/03/07 03:40:12;;;;;;;9.87;8.33;;;5.00;42.00;;;;;;20682;6854;118528;-75
2023/03/07 03:42:32;;;;;;;11.88;10.85;;;4.90;42.20;;;;;;20445;6859;309926;-75
2023/03/07 03:44:57;;;;;;;9.90;9.00;;;5.10;42.00;;;;;;20692;6854;117575;-73
2023/03/07 03:47:23;;;;;;;11.02;8.57;;;5.20;41.80;;;;;;20669;6854;117493;-75
2023/03/07 03:49:48;;;;;;;10.00;9.00;;;5.10;41.90;;;;;;20690;6854;117520;-75
2023/03/07 03:52:14;;;;;;;9.77;8.77;;;5.00;42.00;;;;;;20671;6854;119529;-74
2023/03/07 03:54:40;;;;;;;11.12;10.13;;;5.00;42.20;;;;;;20467;6856;308713;-73
2023/03/07 03:57:06;;;;;;;11.75;10.65;;;5.20;42.10;;;;;;20476;6856;313678;-75
2023/03/07 03:59:31;;;;;;;9.95;8.95;;;5.60;41.40;;;;;;20681;6848;118621;-75
2023/03/07 04:01:57;;;;;;;11.70;10.60;;;5.60;41.40;;;;;;20467;6856;313094;-74
2023/03/07 04:04:23;;;;;;;11.52;10.52;;;5.70;41.20;;;;;;20464;6856;342376;-74
2023/03/07 04:06:48;;;;;;;11.50;10.30;;;6.00;40.70;;;;;;20474;6856;281140;-74
2023/03/07 04:09:14;;;;;;;12.00;11.00;;;6.20;40.10;;;;;;20442;6859;279693;-75
2023/03/07 04:11:39;;;;;;;10.98;10.05;;;6.40;39.80;;;;;;20472;6853;310194;-74
2023/03/07 04:14:05;;;;;;;9.93;9.03;;;6.50;39.50;;;;;;20679;6848;117721;-73
2023/03/07 04:16:30;;;;;;;11.60;10.70;;;6.30;39.70;;;;;;20496;6848;307621;-73
2023/03/07 04:18:58;;;;;;;10.97;9.20;;;6.20;39.80;;;;;;20670;6863;120348;-74
2023/03/07 04:21:23;;;;;;;11.07;10.17;;;6.00;39.90;;;;;;20476;6845;279192;-78
2023/03/07 04:23:49;;;;;;;11.07;10.05;;;6.00;40.20;;;;;;20504;6845;309636;-75
2023/03/07 04:26:15;;;;;;;12.10;10.93;;;6.20;40.00;;;;;;20491;6847;309102;-78
2023/03/07 04:28:43;;;;;;;11.38;10.48;;;6.40;38.90;;;;;;20490;6847;341310;-75
2023/03/07 04:31:12;;;;;;;9.33;7.93;;;6.40;38.90;;;;;;20691;6847;117732;-74
2023/03/07 04:33:39;;;;;;;8.60;7.90;;;5.80;39.70;;;;;;20709;6841;119649;-74
2023/03/07 04:36:05;;;;;;;8.77;7.87;;;5.80;39.70;;;;;;20735;6841;117090;-75
2023/03/07 04:38:31;;;;;;;9.17;8.20;;;5.40;40.00;;;;;;20733;6841;117591;-75
2023/03/07 04:40:56;;;;;;;8.68;7.87;;;5.20;40.50;;;;;;20729;6840;118476;-74
2023/03/07 04:43:23;;;;;;;10.73;9.83;;;5.10;40.90;;;;;;20497;6840;338174;-74
2023/03/07 04:45:48;;;;;;;8.87;8.17;;;5.10;40.80;;;;;;20689;6841;121007;-73
2023/03/07 04:48:14;;;;;;;10.70;9.80;;;5.10;40.70;;;;;;20514;6841;302535;-75
2023/03/07 04:50:39;;;;;;;9.50;8.27;;;5.30;40.50;;;;;;20694;6841;118726;-75
2023/03/07 04:53:05;;;;;;;8.93;8.13;;;5.20;40.30;;;;;;20710;6841;118992;-73
2023/03/07 04:55:30;;;;;;;9.68;8.63;;;5.10;40.70;;;;;;20672;6841;117216;-77
2023/03/07 04:57:56;;;;;;;10.27;8.17;;;4.90;40.90;;;;;;20676;6853;118325;-74
2023/03/07 05:00:22;;;;;;;9.85;9.05;;;4.90;41.30;;;;;;20472;6853;308507;-72
2023/03/07 05:02:48;;;;;;;9.83;8.90;;;4.90;41.20;;;;;;20689;6853;121477;-72
2023/03/07 05:05:14;;;;;;;9.20;8.40;;;4.80;41.10;;;;;;20678;6853;119177;-72
2023/03/07 05:07:40;;;;;;;10.70;9.70;;;4.80;41.20;;;;;;20475;6853;297917;-73
2023/03/07 05:10:07;;;;;;;9.82;8.95;;;5.00;41.20;;;;;;20693;6853;119172;-72
2023/03/07 05:12:33;;;;;;;9.13;8.23;;;4.80;41.20;;;;;;20688;6853;117061;-71
2023/03/07 05:14:59;;;;;;;10.63;9.65;;;4.80;41.20;;;;;;20473;6853;337613;-72
2023/03/07 05:17:24;;;;;;;11.00;8.13;;;5.00;41.40;;;;;;20670;6854;120132;-73
2023/03/07 05:19:50;;;;;;;8.43;7.63;;;5.00;41.10;;;;;;20691;6854;117487;-72
2023/03/07 05:22:16;;;;;;;7.80;7.12;;;4.80;41.20;;;;;;20682;6854;118457;-71
2023/03/07 05:24:41;;;;;;;8.60;7.70;;;4.70;41.50;;;;;;20645;6854;117835;-73
2023/03/07 05:27:07;;;;;;;9.30;8.50;;;4.50;41.60;;;;;;20466;6854;283431;-71
2023/03/07 05:29:32;;;;;;;10.27;9.37;;;4.70;41.40;;;;;;20461;6854;280514;-74
2023/03/07 05:31:58;;;;;;;7.83;7.13;;;5.10;40.70;;;;;;20692;6854;117257;-70
2023/03/07 05:34:23;;;;;;;10.10;9.30;;;5.10;40.40;;;;;;20471;6854;342459;-71
2023/03/07 05:36:49;;;;;;;8.60;7.90;;;5.20;40.30;;;;;;20678;6854;118354;-71
2023/03/07 05:39:15;;;;;;;9.80;8.90;;;5.20;40.30;;;;;;20451;6854;336819;-70
2023/03/07 05:41:40;;;;;;;9.40;8.65;;;5.30;40.30;;;;;;20467;6854;341410;-71
2023/03/07 05:44:06;;;;;;;8.95;7.65;;;5.50;39.90;;;;;;20690;6854;117156;-72
2023/03/07 05:46:31;;;;;;;8.10;7.00;;;5.40;39.90;;;;;;20680;6854;119581;-70
2023/03/07 05:48:57;;;;;;;7.67;6.60;;;5.20;40.30;;;;;;20659;6856;120201;-70
2023/03/07 05:51:23;;;;;;;9.43;8.57;;;5.10;41.30;;;;;;20408;6867;339042;-73
2023/03/07 05:53:49;;;;;;;8.37;7.67;;;5.10;40.90;;;;;;20655;6867;117747;-73
2023/03/07 05:56:14;;;;;;;7.73;6.97;;;5.20;40.80;;;;;;20649;6867;117596;-73
2023/03/07 05:58:40;;;;;;;8.30;7.50;;;5.00;40.90;;;;;;20646;6867;118216;-71
2023/03/07 06:01:07;;;;;;;9.37;8.53;;;4.90;41.10;;;;;;20440;6867;280001;-71
2023/03/07 06:03:32;;;;;;;9.27;8.55;;;5.10;40.80;;;;;;20451;6854;308783;-72
2023/03/07 06:05:58;;;;;;;9.73;8.95;;;5.40;40.20;;;;;;20430;6859;313009;-72
2023/03/07 06:08:24;;;;;;;8.67;7.83;;;5.80;39.70;;;;;;20676;6859;117341;-73
2023/03/07 06:10:49;;;;;;;7.90;7.20;;;5.70;39.60;;;;;;20671;6859;118705;-73
2023/03/07 06:13:15;;;;;;;7.95;7.25;;;5.50;39.90;;;;;;20600;6859;117733;-73
2023/03/07 06:15:42;;;;;;;9.60;8.80;;;5.30;40.30;;;;;;20412;6862;339839;-73
2023/03/07 06:18:08;;;;;;;9.95;9.07;;;5.40;40.40;;;;;;20449;6862;279233;-73
2023/03/07 06:20:33;;;;;;;10.00;9.18;;;5.70;39.90;;;;;;20452;6850;338330;-73
2023/03/07 06:22:58;;;;;;;10.00;9.20;;;6.00;39.40;;;;;;20445;6862;315337;-73
2023/03/07 06:25:24;;;;;;;9.30;8.70;;;6.20;38.90;;;;;;20455;6857;308371;-70
2023/03/07 06:27:51;;;;;;;7.90;7.27;;;6.40;38.50;;;;;;20661;6850;123519;-70
2023/03/07 06:30:16;;;;;;;9.63;8.82;;;6.20;38.70;;;;;;20480;6850;313021;-71
2023/03/07 06:32:42;;;;;;;8.70;7.87;;;6.20;38.70;;;;;;20631;6874;118729;-71
2023/03/07 06:35:08;;;;;;;8.20;7.50;;;6.00;38.80;;;;;;20642;6860;118542;-70
2023/03/07 06:37:33;;;;;;;8.10;6.80;;;5.80;39.30;;;;;;20665;6856;117947;-70
2023/03/07 06:39:59;;;;;;;7.95;7.25;;;5.60;39.80;;;;;;20656;6856;117203;-73
2023/03/07 06:42:24;;;;;;;7.73;7.03;;;5.40;40.20;;;;;;20657;6856;117356;-71
2023/03/07 06:44:50;;;;;;;9.55;8.75;;;5.30;40.40;;;;;;20427;6863;284467;-73
2023/03/07 06:47:15;;;;;;;7.55;6.82;;;5.40;40.80;;;;;;20593;6873;117398;-73
2023/03/07 06:49:42;;;;;;;9.80;9.00;;;5.70;39.70;;;;;;20419;6871;309674;-72
2023/03/07 06:52:07;;;;;;;8.00;7.40;;;5.70;39.70;;;;;;20601;6872;121093;-74
2023/03/07 06:54:33;;;;;;;10.27;9.37;;;5.70;39.60;;;;;;20427;6870;282241;-73
2023/03/07 06:56:58;;;;;;;8.27;7.57;;;5.90;39.50;;;;;;20644;6870;117848;-73
2023/03/07 06:59:24;;;;;;;8.68;7.82;;;5.90;39.40;;;;;;20597;6870;117307;-73
2023/03/07 07:01:50;;;;;;;8.00;7.30;;;5.70;40.50;;;;;;20655;6860;117330;-73
2023/03/07 07:04:16;;;;;;;10.20;9.30;;;5.70;40.00;;;;;;20461;6859;279033;-72
2023/03/07 07:06:43;;;;;;;9.83;9.03;;;6.30;39.00;;;;;;20424;6865;282729;-70
2023/03/07 07:09:09;;;;;;;10.00;9.13;;;6.30;39.00;;;;;;20435;6865;336122;-75
2023/03/07 07:11:35;;;;;;;10.13;9.23;;;6.70;38.50;;;;;;20376;6876;280143;-74
2023/03/07 07:14:00;;;;;;;10.43;8.03;;;7.00;37.80;;;;;;20629;6875;117597;-72
2023/03/07 07:16:26;;;;;;;10.03;9.20;;;7.00;38.00;;;;;;20422;6873;310649;-74
2023/03/07 07:18:51;;;;;;;10.00;9.20;;;7.10;38.10;;;;;;20414;6871;334989;-75
2023/03/07 07:21:18;;;;;;;10.23;9.40;;;7.30;37.80;;;;;;20408;6872;313451;-74
2023/03/07 07:23:44;;;;;;;9.17;8.20;;;7.50;37.40;;;;;;20637;6872;118732;-72
2023/03/07 07:26:09;;;;;;;9.80;9.00;;;7.40;37.50;;;;;;20398;6872;313261;-72
2023/03/07 07:28:35;;;;;;;10.13;9.33;;;7.40;37.40;;;;;;20399;6877;278982;-72
2023/03/07 07:31:00;;;;;;;10.32;9.48;;;7.60;37.30;;;;;;20382;6877;311678;-72
2023/03/07 07:33:27;;;;;;;8.68;7.95;;;7.70;37.20;;;;;;20583;6877;118401;-72
2023/03/07 07:35:54;;;;;;;9.97;9.17;;;7.70;37.20;;;;;;20388;6882;311128;-73
2023/03/07 07:38:19;;;;;;;8.97;8.27;;;7.70;37.00;;;;;;20648;6854;119321;-72
2023/03/07 07:40:45;;;;;;;10.40;9.63;;;7.60;37.20;;;;;;20386;6877;309126;-73
2023/03/07 07:43:11;;;;;;;9.53;8.40;;;7.60;37.20;;;;;;20599;6875;117968;-73
2023/03/07 07:45:37;;;;;;;10.83;9.83;;;7.50;37.20;;;;;;20366;6875;282502;-73
2023/03/07 07:48:02;;;;;;;10.63;9.63;;;7.60;37.30;;;;;;20266;6875;285356;-73
2023/03/07 07:50:28;;;;;;;11.03;10.13;;;7.80;36.70;;;;;;20210;6878;311931;-73
2023/03/07 07:52:53;;;;;;;10.57;9.73;;;8.00;36.20;;;;;;20399;6863;311705;-73
2023/03/07 07:55:19;;;;;;;11.00;10.10;;;8.10;36.10;;;;;;20401;6863;279301;-72
2023/03/07 07:57:44;;;;;;;10.90;10.05;;;8.30;36.00;;;;;;20441;6863;302949;-73
2023/03/07 08:00:11;;;;;;;10.52;9.63;;;8.70;36.60;;;;;;20440;6863;279485;-73
2023/03/07 08:02:37;;;;;;;9.50;8.73;;;8.60;35.80;;;;;;20658;6863;117278;-70
2023/03/07 08:05:05;;;;;;;8.27;7.57;;;8.70;36.30;;;;;;20666;6863;119306;-74
2023/03/07 08:07:28;;;;;;;9.47;8.67;;;8.50;36.60;;;;;;20419;6863;438149;-72
2023/03/07 08:09:53;;;;;;;10.23;9.43;;;8.60;35.70;;;;;;20452;6863;309650;-72
2023/03/07 08:12:20;;;;;;;10.50;9.70;;;9.00;35.30;;;;;;20456;6863;311067;-74
2023/03/07 08:14:46;;;;;;;9.67;8.73;;;9.00;34.70;;;;;;20667;6862;117317;-76
2023/03/07 08:17:12;;;;;;;10.37;9.27;;;8.90;35.10;;;;;;20638;6863;117920;-73
2023/03/07 08:19:37;;;;;;;9.82;8.82;;;8.60;35.50;;;;;;20646;6863;117380;-75
2023/03/07 08:22:03;;;;;;;9.90;9.00;;;8.30;36.00;;;;;;20656;6862;117542;-74
2023/03/07 08:24:31;;;;;;;8.83;8.07;;;8.20;36.60;;;;;;20652;6862;117182;-74
2023/03/07 08:26:54;;;;;;;11.73;9.20;;;8.10;37.10;;;;;;20646;6860;121275;-72
2023/03/07 08:29:20;;;;;;;10.32;9.43;;;8.10;37.30;;;;;;20645;6860;127028;-74
2023/03/07 08:31:50;;;;;;;10.88;9.77;;;8.00;37.20;;;;;;20608;6879;117582;-74
2023/03/07 08:34:13;;;;;;;13.87;12.47;;;8.00;37.30;;;;;;20447;6860;282771;-74
2023/03/07 08:36:39;;;;;;;17.12;13.25;;;8.40;36.70;;;;;;20664;6860;117863;-74
2023/03/07 08:39:05;;;;;;;10.57;9.67;;;8.30;36.30;;;;;;20444;6860;307780;-73
2023/03/07 08:41:30;;;;;;;11.15;10.05;;;8.50;35.30;;;;;;20662;6860;117293;-75
2023/03/07 08:43:56;;;;;;;8.63;7.72;;;8.50;35.40;;;;;;20621;6879;120452;-75
2023/03/07 08:46:22;;;;;;;10.35;9.45;;;8.40;35.80;;;;;;20452;6860;338800;-74
2023/03/07 08:48:48;;;;;;;8.98;8.15;;;8.60;35.60;;;;;;20668;6860;117515;-74
2023/03/07 08:51:14;;;;;;;9.45;8.65;;;8.60;35.60;;;;;;20377;6879;279227;-74
2023/03/07 08:53:41;;;;;;;9.50;8.80;;;8.80;35.10;;;;;;20451;6860;338382;-74
2023/03/07 08:56:06;;;;;;;9.93;9.15;;;9.40;33.80;;;;;;20459;6860;298447;-74
2023/03/07 08:58:31;;;;;;;10.30;9.50;;;9.40;33.80;;;;;;20411;6875;338732;-74
2023/03/07 09:00:58;;;;;;;10.43;7.93;;;9.50;33.80;;;;;;20637;6871;121237;-74
2023/03/07 09:03:23;;;;;;;14.37;12.77;;;9.50;33.80;;;;;;20596;6875;117942;-74
2023/03/07 09:05:49;;;;;;;10.27;9.27;;;9.10;34.90;;;;;;20606;6882;117801;-73
2023/03/07 09:08:15;;;;;;;9.23;8.53;;;9.00;34.80;;;;;;20382;6881;314716;-74
2023/03/07 09:10:41;;;;;;;8.47;7.80;;;9.20;34.70;;;;;;20627;6875;117316;-74
2023/03/07 09:13:07;;;;;;;9.50;8.70;;;9.20;34.70;;;;;;20430;6870;299907;-74
2023/03/07 09:15:32;;;;;;;7.60;7.00;;;9.30;34.50;;;;;;20612;6870;121531;-74
2023/03/07 09:17:58;;;;;;;9.23;8.53;;;9.20;34.50;;;;;;20427;6870;281262;-76
2023/03/07 09:20:24;;;;;;;8.97;8.33;;;9.30;34.20;;;;;;20412;6870;307994;-74
2023/03/07 09:22:50;;;;;;;8.90;8.20;;;9.50;33.70;;;;;;20421;6870;342141;-73
2023/03/07 09:25:15;;;;;;;9.00;8.20;;;9.60;33.00;;;;;;20612;6869;118401;-73
2023/03/07 09:27:44;;;;;;;9.07;8.43;;;9.40;33.30;;;;;;20402;6876;286237;-74
2023/03/07 09:30:06;;;;;;;9.30;8.60;;;9.30;33.10;;;;;;20382;6884;280447;-74
2023/03/07 09:32:32;;;;;;;9.30;8.60;;;9.40;34.00;;;;;;20450;6863;280222;-73
2023/03/07 09:34:57;;;;;;;7.97;7.37;;;9.50;33.10;;;;;;20658;6863;117999;-74
2023/03/07 09:37:24;;;;;;;7.90;7.20;;;9.30;33.50;;;;;;20641;6863;121357;-75
2023/03/07 09:39:50;;;;;;;9.35;8.65;;;9.00;34.00;;;;;;20445;6863;308040;-73
2023/03/07 09:42:35;;;;;;;9.10;8.40;;;9.00;33.90;;;;;;20449;6863;306560;-74
2023/03/07 09:45:11;;;;;;;8.83;8.13;;;9.20;33.60;;;;;;20660;6863;117120;-74
2023/03/07 09:47:56;;;;;;;8.88;8.25;;;9.10;33.70;;;;;;20441;6863;337666;-74
2023/03/07 09:50:33;;;;;;;8.57;7.78;;;9.40;32.80;;;;;;20456;6863;338109;-71
2023/03/07 09:52:58;;;;;;;8.90;8.10;;;9.40;32.80;;;;;;20437;6863;278608;-75
2023/03/07 09:55:25;;;;;;;7.83;7.17;;;9.40;32.70;;;;;;20634;6863;117545;-74
2023/03/07 09:57:50;;;;;;;7.67;7.07;;;9.40;32.70;;;;;;20657;6863;121882;-74
2023/03/07 10:00:30;;;;;;;7.47;6.77;;;8.90;33.80;;;;;;20636;6863;117740;-74
2023/03/07 10:03:02;;;;;;;8.43;7.83;;;8.90;33.70;;;;;;20437;6863;309048;-72
2023/03/07 10:05:28;;;;;;;7.20;6.70;;;9.00;33.00;;;;;;19886;6865;119581;-73
2023/03/07 10:07:53;;;;;;;7.73;7.13;;;9.00;33.20;;;;;;20423;6870;308173;-73
2023/03/07 10:10:23;;;;;;;6.73;6.23;;;9.00;32.40;;;;;;20614;6879;120963;-75
2023/03/07 10:12:52;;;;;;;7.67;7.07;;;9.00;31.90;;;;;;20455;6865;308210;-74
2023/03/07 10:15:37;;;;;;;7.37;6.80;;;9.00;31.80;;;;;;20389;6870;307447;-74
2023/03/07 10:18:19;;;;;;;7.55;6.95;;;9.20;30.90;;;;;;20452;6865;337824;-73
2023/03/07 10:20:51;;;;;;;7.30;6.70;;;9.40;30.80;;;;;;20655;6870;117511;-73
2023/03/07 10:23:46;;;;;;;6.83;6.43;;;9.20;31.40;;;;;;20421;6865;302035;-73
2023/03/07 10:26:15;;;;;;;7.43;6.93;;;9.10;31.20;;;;;;20436;6870;337649;-72
2023/03/07 10:28:42;;;;;;;7.03;6.53;;;9.10;31.30;;;;;;20595;6879;117567;-73
2023/03/07 10:31:17;;;;;;;7.57;7.07;;;9.10;31.30;;;;;;20442;6865;282744;-71
2023/03/07 10:33:42;;;;;;;7.93;7.43;;;9.10;31.30;;;;;;20438;6865;338119;-74
2023/03/07 10:36:08;;;;;;;6.60;6.10;;;9.30;31.00;;;;;;20593;6879;117363;-72
2023/03/07 10:38:35;;;;;;;6.50;6.00;;;9.10;31.50;;;;;;20602;6878;117441;-72
2023/03/07 10:41:00;;;;;;;6.23;5.63;;;8.80;32.00;;;;;;20616;6879;117676;-73
2023/03/07 10:43:26;;;;;;;6.40;5.90;;;8.60;32.50;;;;;;20596;6879;117714;-73
2023/03/07 10:46:11;;;;;;;7.53;6.93;;;8.40;32.90;;;;;;20396;6879;308581;-72
2023/03/07 10:49:11;;;;;;;7.80;7.20;;;8.60;32.30;;;;;;20631;6752;277101;-72
2023/03/07 10:51:54;;;;;;;6.70;6.10;;;9.00;31.80;;;;;;20482;6808;116987;-77
2023/03/07 10:54:31;;;;;;;7.80;7.30;;;9.00;31.70;;;;;;20618;6757;306529;-78
2023/03/07 10:57:06;;;;;;;7.00;6.50;;;9.00;31.70;;;;;;20888;6737;116690;-77
2023/03/07 10:59:42;;;;;;;8.10;7.50;;;9.00;31.80;;;;;;20635;6742;307755;-73
2023/03/07 11:02:31;;;;;;;8.10;7.50;;;9.10;31.50;;;;;;20570;6752;283442;-73
2023/03/07 11:05:23;;;;;;;8.02;7.43;;;9.40;30.60;;;;;;20640;6752;280896;-77
2023/03/07 11:07:58;;;;;;;7.10;6.60;;;9.60;30.30;;;;;;20857;6752;116976;-77
2023/03/07 11:10:34;;;;;;;8.57;7.93;;;9.40;30.80;;;;;;20600;6767;335206;-74
2023/03/07 11:13:17;;;;;;;7.20;6.70;;;9.30;30.10;;;;;;20684;6758;119859;-75
2023/03/07 11:15:52;;;;;;;8.07;7.37;;;9.10;30.70;;;;;;20597;6767;335647;-73
2023/03/07 11:18:41;;;;;;;7.63;6.93;;;9.10;30.70;;;;;;20787;6752;119288;-74
2023/03/07 11:21:33;;;;;;;8.50;7.80;;;9.00;31.00;;;;;;20585;6758;306466;-74
2023/03/07 11:24:16;;;;;;;8.67;8.00;;;9.30;30.50;;;;;;20617;6752;340071;-74
2023/03/07 11:26:59;;;;;;;6.77;6.17;;;9.30;30.50;;;;;;20834;6752;116815;-76
2023/03/07 11:29:34;;;;;;;8.50;7.80;;;9.20;30.90;;;;;;20628;6752;325056;-78
2023/03/07 11:32:16;;;;;;;8.70;8.00;;;9.20;30.20;;;;;;20570;6758;337601;-75
2023/03/07 11:34:49;;;;;;;7.70;7.10;;;9.20;30.30;;;;;;20850;6752;116824;-76
2023/03/07 11:37:31;;;;;;;8.30;7.60;;;9.20;30.30;;;;;;20885;6737;122682;-76
2023/03/07 11:40:21;;;;;;;7.53;6.83;;;8.90;30.90;;;;;;20852;6752;122722;-77
2023/03/07 11:43:12;;;;;;;7.53;6.60;;;8.70;31.50;;;;;;20709;6752;119831;-78
2023/03/07 11:46:17;;;;;;;9.38;8.68;;;8.50;32.20;;;;;;20601;6757;306260;-77
2023/03/07 11:48:56;;;;;;;8.50;7.80;;;8.70;31.20;;;;;;20897;6737;117300;-79
2023/03/07 11:51:38;;;;;;;7.73;7.13;;;8.70;31.50;;;;;;20852;6742;117285;-80
2023/03/07 11:54:23;;;;;;;6.67;6.17;;;8.70;31.90;;;;;;20850;6751;116765;-78
2023/03/07 11:57:02;;;;;;;8.70;8.00;;;8.60;32.20;;;;;;20630;6752;306627;-76
2023/03/07 11:59:47;;;;;;;7.70;7.10;;;8.80;30.90;;;;;;20823;6752;120184;-76
2023/03/07 12:02:30;;;;;;;7.23;6.63;;;8.90;31.30;;;;;;20739;6752;117360;-76
2023/03/07 12:05:18;;;;;;;7.50;6.80;;;8.80;31.70;;;;;;20856;6752;116863;-76
2023/03/07 12:08:07;;;;;;;7.90;7.10;;;8.70;32.00;;;;;;20840;6752;116074;-78
2023/03/07 12:10:52;;;;;;;7.80;7.03;;;8.60;32.30;;;;;;20331;6808;119695;-74
2023/03/07 12:13:41;;;;;;;7.50;6.90;;;8.40;32.50;;;;;;20673;6752;117885;-75
2023/03/07 12:16:26;;;;;;;7.70;7.00;;;8.40;32.50;;;;;;20821;6757;117314;-77
2023/03/07 12:19:05;;;;;;;8.03;7.23;;;8.40;32.70;;;;;;20832;6752;117221;-77
2023/03/07 12:21:57;;;;;;;7.67;6.97;;;8.50;33.00;;;;;;20810;6752;117565;-76
2023/03/07 12:24:36;;;;;;;8.70;8.00;;;8.50;32.90;;;;;;20607;6757;310484;-75
2023/03/07 12:27:15;;;;;;;9.48;8.68;;;8.90;31.90;;;;;;20640;6793;276691;-76
2023/03/07 12:29:50;;;;;;;8.93;8.17;;;9.50;30.40;;;;;;20599;6752;306617;-75
2023/03/07 12:32:23;;;;;;;9.07;8.27;;;10.00;29.40;;;;;;20534;6752;278501;-75
2023/03/07 12:35:05;;;;;;;9.43;8.63;;;10.40;29.00;;;;;;20622;6752;335169;-75
2023/03/07 12:38:00;;;;;;;9.00;8.30;;;10.80;28.50;;;;;;20603;6752;306247;-75
2023/03/07 12:40:43;;;;;;;7.87;7.13;;;10.60;28.20;;;;;;20836;6752;117111;-74
2023/03/07 12:43:28;;;;;;;9.13;8.43;;;10.60;28.20;;;;;;20460;6752;280164;-75
2023/03/07 12:46:37;;;;;;;7.87;7.07;;;10.30;29.10;;;;;;20833;6752;116965;-75
2023/03/07 12:49:23;;;;;;;9.20;8.40;;;10.30;28.60;;;;;;20596;6752;339796;-74